createdAt,value
2017-12-04T00:02:19.003Z,12.60
2017-12-04T00:04:47.261Z,12.63
2017-12-04T00:07:14.779Z,13.25
2017-12-04T00:09:42.306Z,12.85
2017-12-04T00:12:10.579Z,12.93
2017-12-04T00:14:38.080Z,11.35
2017-12-04T00:17:05.576Z,12.52
2017-12-04T00:19:33.837Z,13.55
2017-12-04T00:22:01.351Z,10.93
2017-12-04T00:24:28.851Z,13.43
2017-12-04T00:26:56.462Z,13.35
2017-12-04T00:29:23.972Z,14.15
2017-12-04T00:31:51.467Z,14.68
2017-12-04T00:34:18.986Z,14.60
2017-12-04T00:36:46.483Z,13.85
2017-12-04T00:39:13.984Z,14.38
2017-12-04T00:41:41.490Z,13.57
2017-12-04T00:44:09.755Z,13.00
2017-12-04T00:46:38.044Z,13.70
2017-12-04T00:49:06.309Z,13.20
2017-12-04T00:51:34.576Z,15.07
2017-12-04T00:54:03.584Z,15.35
2017-12-04T00:56:32.063Z,14.55
2017-12-04T00:59:00.329Z,12.70
2017-12-04T01:01:28.592Z,13.88
2017-12-04T01:03:57.595Z,13.45
2017-12-04T01:06:25.883Z,13.65
2017-12-04T01:08:54.155Z,13.82
2017-12-04T01:11:22.438Z,12.82
2017-12-04T01:13:50.103Z,26.45
2017-12-04T01:16:18.367Z,24.37
2017-12-04T01:18:45.867Z,24.00
2017-12-04T01:21:13.363Z,25.52
2017-12-04T01:23:40.859Z,23.65
2017-12-04T01:26:09.115Z,20.88
2017-12-04T01:28:36.613Z,25.55
2017-12-04T01:31:04.122Z,22.60
2017-12-04T01:33:32.399Z,24.35
2017-12-04T01:35:59.912Z,24.70
2017-12-04T01:38:27.419Z,25.20
2017-12-04T01:40:54.931Z,24.02
2017-12-04T01:43:22.439Z,12.80
2017-12-04T01:45:49.945Z,11.38
2017-12-04T01:48:17.446Z,25.12
2017-12-04T01:50:44.955Z,22.77
2017-12-04T01:53:12.460Z,22.73
2017-12-04T01:55:39.959Z,15.05
2017-12-04T01:58:07.476Z,13.52
2017-12-04T02:00:34.972Z,13.77
2017-12-04T02:03:03.357Z,13.90
2017-12-04T02:05:30.875Z,13.20
2017-12-04T02:07:58.403Z,12.05
2017-12-04T02:10:25.900Z,14.45
2017-12-04T02:12:53.401Z,13.35
2017-12-04T02:15:20.915Z,12.60
2017-12-04T02:17:48.426Z,12.40
2017-12-04T02:20:15.923Z,12.85
2017-12-04T02:22:43.419Z,13.30
2017-12-04T02:25:11.729Z,13.32
2017-12-04T02:27:39.204Z,14.10
2017-12-04T02:30:06.718Z,14.60
2017-12-04T02:32:34.256Z,12.55
2017-12-04T02:35:02.517Z,14.35
2017-12-04T02:37:30.031Z,12.85
2017-12-04T02:39:57.543Z,12.25
2017-12-04T02:42:25.807Z,12.43
2017-12-04T02:44:53.327Z,13.05
2017-12-04T02:47:20.831Z,13.15
2017-12-04T02:49:48.336Z,12.27
2017-12-04T02:52:15.851Z,11.95
2017-12-04T02:54:44.124Z,12.43
2017-12-04T02:57:11.627Z,12.10
2017-12-04T02:59:39.126Z,10.82
2017-12-04T03:02:06.651Z,11.88
2017-12-04T03:04:34.151Z,9.82
2017-12-04T03:07:01.675Z,10.05
2017-12-04T03:09:29.184Z,9.90
2017-12-04T03:11:57.442Z,8.60
2017-12-04T03:14:24.939Z,9.95
2017-12-04T03:16:52.443Z,10.32
2017-12-04T03:19:19.944Z,9.70
2017-12-04T03:21:48.223Z,9.23
2017-12-04T03:24:16.492Z,8.18
2017-12-04T03:26:44.748Z,9.57
2017-12-04T03:29:12.255Z,9.10
2017-12-04T03:31:39.776Z,8.40
2017-12-04T03:34:07.267Z,9.25
2017-12-04T03:36:34.759Z,7.75
2017-12-04T03:39:02.253Z,6.85
2017-12-04T03:41:30.527Z,8.35
2017-12-04T03:43:58.783Z,7.32
2017-12-04T03:46:26.277Z,9.90
2017-12-04T03:48:54.556Z,8.18
2017-12-04T03:51:22.932Z,8.65
2017-12-04T03:53:51.188Z,7.87
2017-12-04T03:56:18.692Z,6.90
2017-12-04T03:58:46.188Z,7.28
2017-12-04T04:01:13.699Z,7.95
2017-12-04T04:03:41.204Z,7.40
2017-12-04T04:06:08.696Z,7.55
2017-12-04T04:08:36.951Z,7.62
2017-12-04T04:11:04.563Z,8.95
2017-12-04T04:13:32.067Z,7.90
2017-12-04T04:15:59.560Z,7.53
2017-12-04T04:18:27.172Z,10.23
2017-12-04T04:20:54.672Z,10.05
2017-12-04T04:23:22.931Z,8.65
2017-12-04T04:25:51.195Z,9.38
2017-12-04T04:28:18.703Z,8.77
2017-12-04T04:30:46.199Z,8.43
2017-12-04T04:33:13.718Z,8.90
2017-12-04T04:35:41.215Z,9.65
2017-12-04T04:38:08.711Z,10.40
2017-12-04T04:40:36.992Z,9.40
2017-12-04T04:43:05.276Z,10.25
2017-12-04T04:45:32.927Z,9.90
2017-12-04T04:48:00.445Z,11.65
2017-12-04T04:50:27.936Z,8.10
2017-12-04T04:52:56.199Z,9.10
2017-12-04T04:55:23.716Z,9.18
2017-12-04T04:57:51.209Z,10.13
2017-12-04T05:00:18.703Z,8.05
2017-12-04T05:02:46.196Z,8.80
2017-12-04T05:05:13.706Z,7.30
2017-12-04T05:07:41.969Z,8.13
2017-12-04T05:10:09.459Z,8.40
2017-12-04T05:12:36.961Z,6.97
2017-12-04T05:15:04.460Z,7.05
2017-12-04T05:17:32.723Z,7.15
2017-12-04T05:20:00.991Z,6.40
2017-12-04T05:22:28.668Z,6.05
2017-12-04T05:24:56.950Z,8.15
2017-12-04T05:27:25.207Z,8.32
2017-12-04T05:29:52.707Z,7.90
2017-12-04T05:32:20.203Z,8.07
2017-12-04T05:34:47.694Z,7.90
2017-12-04T05:37:15.963Z,11.48
2017-12-04T05:39:43.504Z,8.35
2017-12-04T05:42:10.995Z,8.20
2017-12-04T05:44:39.252Z,8.30
2017-12-04T05:47:06.752Z,9.20
2017-12-04T05:49:34.266Z,9.00
2017-12-04T05:52:01.760Z,7.95
2017-12-04T05:54:29.400Z,8.40
2017-12-04T05:56:57.664Z,9.02
2017-12-04T05:59:25.156Z,8.68
2017-12-04T06:01:52.659Z,8.82
2017-12-04T06:04:20.152Z,9.20
2017-12-04T06:06:48.407Z,9.52
2017-12-04T06:09:16.679Z,9.98
2017-12-04T06:11:44.295Z,10.75
2017-12-04T06:14:11.924Z,11.45
2017-12-04T06:16:40.196Z,10.15
2017-12-04T06:19:08.471Z,10.63
2017-12-04T06:21:36.735Z,10.60
2017-12-04T06:24:04.244Z,12.32
2017-12-04T06:26:31.756Z,10.15
2017-12-04T06:28:59.254Z,12.00
2017-12-04T06:31:26.891Z,9.15
2017-12-04T06:33:55.155Z,11.65
2017-12-04T06:36:23.432Z,10.00
2017-12-04T06:38:50.925Z,11.32
2017-12-04T06:41:18.439Z,12.25
2017-12-04T06:43:46.831Z,10.98
2017-12-04T06:46:15.103Z,11.55
2017-12-04T06:48:42.600Z,9.48
2017-12-04T06:51:10.096Z,10.32
2017-12-04T06:53:37.600Z,10.35
2017-12-04T06:56:05.876Z,11.05
2017-12-04T06:58:34.155Z,10.20
2017-12-04T07:01:01.668Z,11.00
2017-12-04T07:03:29.359Z,12.25
2017-12-04T07:05:57.623Z,11.15
2017-12-04T07:08:25.240Z,12.40
2017-12-04T07:10:52.735Z,13.48
2017-12-04T07:13:20.995Z,13.48
2017-12-04T07:15:48.499Z,11.57
2017-12-04T07:18:16.759Z,13.23
2017-12-04T07:20:45.023Z,11.32
2017-12-04T07:23:12.529Z,12.40
2017-12-04T07:25:40.044Z,11.60
2017-12-04T07:28:08.326Z,10.70
2017-12-04T07:30:35.820Z,10.70
2017-12-04T07:33:03.322Z,10.13
2017-12-04T07:35:31.019Z,11.50
2017-12-04T07:37:59.296Z,9.30
2017-12-04T07:40:27.560Z,10.45
2017-12-04T07:42:55.055Z,9.73
2017-12-04T07:45:22.576Z,10.13
2017-12-04T07:47:50.984Z,11.18
2017-12-04T07:50:18.483Z,10.10
2017-12-04T07:52:45.976Z,9.73
2017-12-04T07:55:14.263Z,11.27
2017-12-04T07:57:42.529Z,13.13
2017-12-04T08:00:10.792Z,11.32
2017-12-04T08:02:39.814Z,13.40
2017-12-04T08:05:07.316Z,12.30
2017-12-04T08:07:34.927Z,10.50
2017-12-04T08:10:03.192Z,11.65
2017-12-04T08:12:31.463Z,12.93
2017-12-04T08:14:58.963Z,11.85
2017-12-04T08:17:26.471Z,12.18
2017-12-04T08:19:54.738Z,13.52
2017-12-04T08:22:23.127Z,11.20
2017-12-04T08:24:50.616Z,11.93
2017-12-04T08:27:18.876Z,9.35
2017-12-04T08:29:47.148Z,12.00
2017-12-04T08:32:14.667Z,11.20
2017-12-04T08:34:42.156Z,9.98
2017-12-04T08:37:09.835Z,11.70
2017-12-04T08:39:38.100Z,10.32
2017-12-04T08:42:05.614Z,9.25
2017-12-04T08:44:33.119Z,8.32
2017-12-04T08:47:00.607Z,8.25
2017-12-04T08:49:28.256Z,9.23
2017-12-04T08:51:56.535Z,7.93
2017-12-04T08:54:24.792Z,8.00
2017-12-04T08:56:53.063Z,7.90
2017-12-04T08:59:20.559Z,7.07
2017-12-04T09:01:48.067Z,7.75
2017-12-04T09:04:15.559Z,8.57
2017-12-04T09:06:43.819Z,7.40
2017-12-04T09:09:11.314Z,8.40
2017-12-04T09:11:38.808Z,8.75
2017-12-04T09:14:06.308Z,10.20
2017-12-04T09:16:34.571Z,10.10
2017-12-04T09:19:02.855Z,11.73
2017-12-04T09:21:31.127Z,10.27
2017-12-04T09:23:59.383Z,8.65
2017-12-04T09:26:26.883Z,9.88
2017-12-04T09:28:54.375Z,9.95
2017-12-04T09:31:21.871Z,8.50
2017-12-04T09:33:49.364Z,9.63
2017-12-04T09:36:16.864Z,9.30
2017-12-04T09:38:44.373Z,9.00
2017-12-04T09:41:11.893Z,10.27
2017-12-04T09:43:39.385Z,9.40
2017-12-04T09:46:07.642Z,8.75
2017-12-04T09:48:35.911Z,8.57
2017-12-04T09:51:03.427Z,9.05
2017-12-04T09:53:30.920Z,8.80
2017-12-04T09:55:58.416Z,9.45
2017-12-04T09:58:25.932Z,9.43
2017-12-04T10:00:53.436Z,9.98
2017-12-04T10:03:20.952Z,9.73
2017-12-04T10:05:48.453Z,9.32
2017-12-04T10:08:15.963Z,9.00
2017-12-04T10:10:43.478Z,9.65
2017-12-04T10:13:11.004Z,10.18
2017-12-04T10:15:39.527Z,9.05
2017-12-04T10:18:07.045Z,9.90
2017-12-04T10:20:35.313Z,10.00
2017-12-04T10:23:02.829Z,9.75
2017-12-04T10:25:30.339Z,10.48
2017-12-04T10:27:58.607Z,10.07
2017-12-04T10:30:26.291Z,10.45
2017-12-04T10:32:54.567Z,10.00
2017-12-04T10:35:22.827Z,9.82
2017-12-04T10:37:51.104Z,9.23
2017-12-04T10:40:19.371Z,10.55
2017-12-04T10:42:46.864Z,8.75
2017-12-04T10:45:14.389Z,9.60
2017-12-04T10:47:41.892Z,9.50
2017-12-04T10:50:09.395Z,9.73
2017-12-04T10:52:36.909Z,11.27
2017-12-04T10:55:04.457Z,28.40
2017-12-04T10:57:31.946Z,21.45
2017-12-04T10:59:59.453Z,20.35
2017-12-04T11:02:27.723Z,11.88
2017-12-04T11:04:56.001Z,16.45
2017-12-04T11:07:24.265Z,12.73
2017-12-04T11:09:51.863Z,9.98
2017-12-04T11:12:19.499Z,9.18
2017-12-04T11:14:47.760Z,9.32
2017-12-04T11:17:15.252Z,9.90
2017-12-04T11:19:42.760Z,7.55
2017-12-04T11:22:10.276Z,8.25
2017-12-04T11:24:37.772Z,9.15
2017-12-04T11:27:05.259Z,8.13
2017-12-04T11:29:32.787Z,9.05
2017-12-04T11:32:00.283Z,9.38
2017-12-04T11:34:28.544Z,8.25
2017-12-04T11:36:56.059Z,8.63
2017-12-04T11:39:23.591Z,8.40
2017-12-04T11:41:51.858Z,10.02
2017-12-04T11:44:20.127Z,7.78
2017-12-04T11:46:48.410Z,6.90
2017-12-04T11:49:16.691Z,7.07
2017-12-04T11:51:44.951Z,7.45
2017-12-04T11:54:12.743Z,7.70
2017-12-04T11:56:40.251Z,7.15
2017-12-04T11:59:07.765Z,8.00
2017-12-04T12:01:35.272Z,7.55
2017-12-04T12:04:02.807Z,7.20
2017-12-04T12:06:30.299Z,7.37
2017-12-04T12:08:57.791Z,6.53
2017-12-04T12:11:25.483Z,7.60
2017-12-04T12:13:52.979Z,6.62
2017-12-04T12:16:21.244Z,9.38
2017-12-04T12:18:48.754Z,7.70
2017-12-04T12:21:16.243Z,7.03
2017-12-04T12:23:43.731Z,7.90
2017-12-04T12:26:11.224Z,6.68
2017-12-04T12:28:38.731Z,7.70
2017-12-04T12:31:06.245Z,7.72
2017-12-04T12:33:33.768Z,8.88
2017-12-04T12:36:01.262Z,8.40
2017-12-04T12:38:28.760Z,9.30
2017-12-04T12:40:56.252Z,8.57
2017-12-04T12:43:24.511Z,7.82
2017-12-04T12:45:52.003Z,6.87
2017-12-04T12:48:20.280Z,9.85
2017-12-04T12:50:48.551Z,8.15
2017-12-04T12:53:16.815Z,7.80
2017-12-04T12:55:45.083Z,8.25
2017-12-04T12:58:12.591Z,8.73
2017-12-04T13:00:40.095Z,8.95
2017-12-04T13:03:07.591Z,8.90
2017-12-04T13:05:35.089Z,8.70
2017-12-04T13:08:02.576Z,8.90
2017-12-04T13:10:30.863Z,10.30
2017-12-04T13:12:59.124Z,11.55
2017-12-04T13:15:26.635Z,8.38
2017-12-04T13:17:54.261Z,8.25
2017-12-04T13:20:22.515Z,9.40
2017-12-04T13:22:50.013Z,9.25
2017-12-04T13:25:17.511Z,8.85
2017-12-04T13:27:45.004Z,8.73
2017-12-04T13:30:13.297Z,10.10
2017-12-04T13:32:53.136Z,10.18
2017-12-04T13:35:33.396Z,10.00
2017-12-04T13:38:01.659Z,9.60
2017-12-04T13:40:29.949Z,9.50
2017-12-04T13:42:58.208Z,9.55
2017-12-04T13:45:25.727Z,10.45
2017-12-04T13:47:53.243Z,10.90
2017-12-04T13:50:21.515Z,10.90
2017-12-04T13:52:49.792Z,9.23
2017-12-04T13:55:18.439Z,9.02
2017-12-04T13:57:45.935Z,9.63
2017-12-04T14:00:14.199Z,9.70
2017-12-04T14:02:41.696Z,10.75
2017-12-04T14:05:09.195Z,11.00
2017-12-04T14:07:36.802Z,9.98
2017-12-04T14:10:04.295Z,9.15
2017-12-04T14:12:31.835Z,9.95
2017-12-04T14:14:59.351Z,9.10
2017-12-04T14:17:26.988Z,9.57
2017-12-04T14:19:54.496Z,9.75
2017-12-04T14:22:22.040Z,9.52
2017-12-04T14:24:50.303Z,9.25
2017-12-04T14:27:17.816Z,8.98
2017-12-04T14:29:45.324Z,9.52
2017-12-04T14:32:12.856Z,9.80
2017-12-04T14:34:40.351Z,9.30
2017-12-04T14:37:08.632Z,8.23
2017-12-04T14:39:36.903Z,8.70
2017-12-04T14:42:05.184Z,9.10
2017-12-04T14:44:33.443Z,8.10
2017-12-04T14:47:00.988Z,9.60
2017-12-04T14:49:28.571Z,9.63
2017-12-04T14:51:56.034Z,8.20
2017-12-04T14:54:24.296Z,9.35
2017-12-04T14:56:51.787Z,9.50
2017-12-04T14:59:19.276Z,8.57
2017-12-04T15:01:46.795Z,8.73
2017-12-04T15:04:15.058Z,7.57
2017-12-04T15:06:43.547Z,7.12
2017-12-04T15:09:11.824Z,7.53
2017-12-04T15:11:40.080Z,9.00
2017-12-04T15:14:08.360Z,7.65
2017-12-04T15:16:36.624Z,7.10
2017-12-04T15:19:04.115Z,6.95
2017-12-04T15:21:32.451Z,7.82
2017-12-04T15:23:59.939Z,7.93
2017-12-04T15:26:28.224Z,9.02
2017-12-04T15:28:56.483Z,8.02
2017-12-04T15:31:24.759Z,9.13
2017-12-04T15:33:52.252Z,8.63
2017-12-04T15:36:19.771Z,7.50
2017-12-04T15:38:48.039Z,8.60
2017-12-04T15:41:15.539Z,7.25
2017-12-04T15:43:43.032Z,7.55
2017-12-04T15:46:10.751Z,6.95
2017-12-04T15:48:39.003Z,7.75
2017-12-04T15:51:08.025Z,7.43
2017-12-04T15:53:35.525Z,7.37
2017-12-04T15:56:03.016Z,5.97
2017-12-04T15:58:30.514Z,8.00
2017-12-04T16:00:58.027Z,7.87
2017-12-04T16:03:25.521Z,8.52
2017-12-04T16:05:53.020Z,7.57
2017-12-04T16:08:20.520Z,8.18
2017-12-04T16:10:48.781Z,8.52
2017-12-04T16:13:16.284Z,8.30
2017-12-04T16:15:43.776Z,8.80
2017-12-04T16:18:11.284Z,8.80
2017-12-04T16:20:38.783Z,10.25
2017-12-04T16:23:06.276Z,8.27
2017-12-04T16:25:34.567Z,8.77
2017-12-04T16:28:02.826Z,8.95
2017-12-04T16:30:30.313Z,8.18
2017-12-04T16:32:57.804Z,8.25
2017-12-04T16:35:25.520Z,8.38
2017-12-04T16:37:53.772Z,8.20
2017-12-04T16:40:21.316Z,7.70
2017-12-04T16:42:48.839Z,9.35
2017-12-04T16:45:16.329Z,7.68
2017-12-04T16:47:43.841Z,9.32
2017-12-04T16:50:11.343Z,7.60
2017-12-04T16:52:38.857Z,7.47
2017-12-04T16:55:06.503Z,7.68
2017-12-04T16:57:34.784Z,7.85
2017-12-04T17:00:03.051Z,10.57
2017-12-04T17:02:31.330Z,8.40
2017-12-04T17:04:59.587Z,8.32
2017-12-04T17:07:27.079Z,7.68
2017-12-04T17:09:55.348Z,9.38
2017-12-04T17:12:23.626Z,8.95
2017-12-04T17:14:51.891Z,8.80
2017-12-04T17:17:20.163Z,8.10
2017-12-04T17:19:47.659Z,8.82
2017-12-04T17:22:15.304Z,10.55
2017-12-04T17:24:43.566Z,9.15
2017-12-04T17:27:11.839Z,9.73
2017-12-04T17:29:40.107Z,8.18
2017-12-04T17:32:07.607Z,9.68
2017-12-04T17:34:35.108Z,10.05
2017-12-04T17:37:02.604Z,10.32
2017-12-04T17:39:30.876Z,9.80
2017-12-04T17:41:59.135Z,10.55
2017-12-04T17:44:26.665Z,10.15
2017-12-04T17:46:54.161Z,10.07
2017-12-04T17:49:22.435Z,8.60
2017-12-04T17:51:50.706Z,9.95
2017-12-04T17:54:18.204Z,9.95
2017-12-04T17:56:45.696Z,8.70
2017-12-04T17:59:13.216Z,9.82
2017-12-04T18:01:40.723Z,9.77
2017-12-04T18:04:08.227Z,8.40
2017-12-04T18:06:35.731Z,10.35
2017-12-04T18:09:03.229Z,9.80
2017-12-04T18:11:31.488Z,9.15
2017-12-04T18:13:59.004Z,9.82
2017-12-04T18:16:26.504Z,9.15
2017-12-04T18:18:54.015Z,10.60
2017-12-04T18:21:21.523Z,9.45
2017-12-04T18:23:49.035Z,11.77
2017-12-04T18:26:16.528Z,10.75
2017-12-04T18:28:49.695Z,10.75
2017-12-04T18:31:17.215Z,10.80
2017-12-04T18:33:44.715Z,11.15
2017-12-04T18:36:12.232Z,10.93
2017-12-04T18:38:39.734Z,11.27
2017-12-04T18:41:07.254Z,11.10
2017-12-04T18:43:34.892Z,11.50
2017-12-04T18:46:03.161Z,11.65
2017-12-04T18:48:30.652Z,11.85
2017-12-04T18:50:58.156Z,12.05
2017-12-04T18:53:25.651Z,12.30
2017-12-04T18:55:53.917Z,11.93
2017-12-04T18:58:22.209Z,12.75
2017-12-04T19:00:50.488Z,11.85
2017-12-04T19:03:18.752Z,11.05
2017-12-04T19:05:47.020Z,13.13
2017-12-04T19:08:15.288Z,10.60
2017-12-04T19:10:42.783Z,11.25
2017-12-04T19:13:10.293Z,12.05
2017-12-04T19:15:37.792Z,11.30
2017-12-04T19:18:05.315Z,12.80
2017-12-04T19:20:33.031Z,13.15
2017-12-04T19:23:00.527Z,11.85
2017-12-04T19:25:28.055Z,12.68
2017-12-04T19:27:55.605Z,11.68
2017-12-04T19:30:23.112Z,12.43
2017-12-04T19:32:50.611Z,15.80
2017-12-04T19:35:18.112Z,13.18
2017-12-04T19:37:45.631Z,12.55
2017-12-04T19:40:13.136Z,15.32
2017-12-04T19:42:40.639Z,10.93
2017-12-04T19:45:08.900Z,11.60
2017-12-04T19:47:37.172Z,12.15
2017-12-04T19:50:05.443Z,13.00
2017-12-04T19:52:33.055Z,11.15
2017-12-04T19:55:01.312Z,11.52
2017-12-04T19:57:28.808Z,11.25
2017-12-04T19:59:56.307Z,13.43
2017-12-04T20:02:24.590Z,11.57
2017-12-04T20:04:52.863Z,10.27
2017-12-04T20:07:21.128Z,10.27
2017-12-04T20:09:49.399Z,12.45
2017-12-04T20:12:16.916Z,11.15
2017-12-04T20:14:44.411Z,11.02
2017-12-04T20:17:11.916Z,11.07
2017-12-04T20:19:39.435Z,10.75
2017-12-04T20:22:06.955Z,11.35
2017-12-04T20:24:34.456Z,11.07
2017-12-04T20:27:02.728Z,10.68
2017-12-04T20:29:30.286Z,11.00
2017-12-04T20:31:57.763Z,10.52
2017-12-04T20:34:26.028Z,10.40
2017-12-04T20:36:54.295Z,11.98
2017-12-04T20:39:21.829Z,12.90
2017-12-04T20:41:49.340Z,9.50
2017-12-04T20:44:17.599Z,10.43
2017-12-04T20:46:45.885Z,10.88
2017-12-04T20:49:14.148Z,10.02
2017-12-04T20:51:41.668Z,10.27
2017-12-04T20:54:09.160Z,11.10
2017-12-04T20:56:38.180Z,11.48
2017-12-04T20:59:06.455Z,11.45
2017-12-04T21:01:34.716Z,13.18
2017-12-04T21:04:02.987Z,12.25
2017-12-04T21:06:31.263Z,11.98
2017-12-04T21:09:10.551Z,12.10
2017-12-04T21:11:48.123Z,12.50
2017-12-04T21:14:27.469Z,12.77
2017-12-04T21:17:06.900Z,11.98
2017-12-04T21:19:34.404Z,12.15
2017-12-04T21:22:01.917Z,13.15
2017-12-04T21:24:29.411Z,12.45
2017-12-04T21:26:56.919Z,12.77
2017-12-04T21:29:25.201Z,13.23
2017-12-04T21:31:52.712Z,14.52
2017-12-04T21:34:20.231Z,14.20
2017-12-04T21:36:47.723Z,15.27
2017-12-04T21:39:15.229Z,13.60
2017-12-04T21:41:43.488Z,17.60
2017-12-04T21:44:11.763Z,13.65
2017-12-04T21:46:39.275Z,14.38
2017-12-04T21:49:06.772Z,12.98
2017-12-04T21:51:34.267Z,13.45
2017-12-04T21:54:01.769Z,13.15
2017-12-04T21:56:29.292Z,12.85
2017-12-04T21:58:56.802Z,12.35
2017-12-04T22:01:24.328Z,11.82
2017-12-04T22:03:51.835Z,11.88
2017-12-04T22:06:20.124Z,9.52
2017-12-04T22:08:48.384Z,9.15
2017-12-04T22:11:16.667Z,9.85
2017-12-04T22:13:44.938Z,10.35
2017-12-04T22:16:13.203Z,10.30
2017-12-04T22:18:41.488Z,10.43
2017-12-04T22:21:09.765Z,10.00
2017-12-04T22:23:38.028Z,9.73
2017-12-04T22:26:05.523Z,9.35
2017-12-04T22:28:33.167Z,9.73
2017-12-04T22:31:01.427Z,7.40
2017-12-04T22:33:28.932Z,7.28
2017-12-04T22:35:56.433Z,7.37
2017-12-04T22:38:23.925Z,6.87
2017-12-04T22:40:52.200Z,5.75
2017-12-04T22:43:20.452Z,6.45
2017-12-04T22:45:47.954Z,5.62
2017-12-04T22:48:15.451Z,6.25
2017-12-04T22:50:45.213Z,5.53
2017-12-04T22:53:12.724Z,6.05
2017-12-04T22:55:40.216Z,5.93
2017-12-04T22:58:08.484Z,7.57
2017-12-04T23:00:36.754Z,7.65
2017-12-04T23:03:04.248Z,8.68
2017-12-04T23:05:31.891Z,9.20
2017-12-04T23:08:00.175Z,10.70
2017-12-04T23:10:28.455Z,11.68
2017-12-04T23:12:55.951Z,10.90
2017-12-04T23:15:23.459Z,13.62
2017-12-04T23:17:51.727Z,13.70
2017-12-04T23:20:19.999Z,11.90
2017-12-04T23:22:48.279Z,13.95
2017-12-04T23:25:16.547Z,13.20
2017-12-04T23:27:44.044Z,13.18
2017-12-04T23:30:11.555Z,13.77
2017-12-04T23:32:39.168Z,14.70
2017-12-04T23:35:06.667Z,14.73
2017-12-04T23:37:34.184Z,11.90
2017-12-04T23:40:01.683Z,12.65
2017-12-04T23:42:29.220Z,13.20
2017-12-04T23:44:56.940Z,13.65
2017-12-04T23:47:25.217Z,11.25
2017-12-04T23:49:53.485Z,10.10
2017-12-04T23:52:21.756Z,10.73
2017-12-04T23:54:49.275Z,11.68
2017-12-04T23:57:16.771Z,11.80
2017-12-04T23:59:44.265Z,12.15
